createdAt,value
2023-12-11T00:01:54.374Z,7.64
2023-12-11T00:04:21.695Z,7.59
2023-12-11T00:06:48.796Z,7.63
2023-12-11T00:09:16.157Z,7.56
2023-12-11T00:11:43.223Z,7.50
2023-12-11T00:14:10.558Z,7.45
2023-12-11T00:16:37.554Z,7.55
2023-12-11T00:19:04.993Z,7.63
2023-12-11T00:21:32.132Z,7.56
2023-12-11T00:23:59.349Z,7.36
2023-12-11T00:26:26.357Z,7.38
2023-12-11T00:28:53.761Z,7.47
2023-12-11T00:31:20.912Z,7.53
2023-12-11T00:33:48.318Z,7.54
2023-12-11T00:36:15.411Z,7.60
2023-12-11T00:38:42.693Z,7.60
2023-12-11T00:41:09.838Z,7.61
2023-12-11T00:43:44.847Z,7.59
2023-12-11T00:46:15.540Z,7.61
2023-12-11T00:48:43.060Z,7.68
2023-12-11T00:51:21.840Z,7.73
2023-12-11T00:53:49.728Z,7.78
2023-12-11T00:56:17.166Z,7.81
2023-12-11T00:58:44.918Z,7.88
2023-12-11T01:01:12.241Z,7.89
2023-12-11T01:03:40.252Z,7.88
2023-12-11T01:06:07.833Z,7.89
2023-12-11T01:08:40.227Z,7.90
2023-12-11T01:11:08.536Z,7.93
2023-12-11T01:13:35.864Z,7.92
2023-12-11T01:16:03.012Z,7.92
2023-12-11T01:18:30.493Z,7.93
2023-12-11T01:20:57.721Z,7.96
2023-12-11T01:23:25.240Z,7.94
2023-12-11T01:25:52.593Z,7.93
2023-12-11T01:28:19.979Z,7.94
2023-12-11T01:30:47.176Z,7.94
2023-12-11T01:33:14.710Z,7.97
2023-12-11T01:35:41.844Z,7.98
2023-12-11T01:38:09.167Z,7.96
2023-12-11T01:40:36.181Z,8.01
2023-12-11T01:43:18.835Z,8.02
2023-12-11T01:46:02.147Z,8.01
2023-12-11T01:48:30.338Z,8.05
2023-12-11T01:50:57.726Z,8.07
2023-12-11T01:53:27.721Z,8.09
2023-12-11T01:55:55.115Z,8.14
2023-12-11T01:58:23.586Z,8.16
2023-12-11T02:00:50.967Z,8.15
2023-12-11T02:03:19.690Z,8.16
2023-12-11T02:05:47.646Z,8.20
2023-12-11T02:08:16.661Z,8.16
2023-12-11T02:10:43.886Z,8.14
2023-12-11T02:13:11.698Z,8.10
2023-12-11T02:15:47.893Z,8.04
2023-12-11T02:18:19.759Z,8.01
2023-12-11T02:20:47.225Z,7.94
2023-12-11T02:23:48.096Z,7.89
2023-12-11T02:26:18.513Z,7.90
2023-12-11T02:28:46.911Z,7.87
2023-12-11T02:31:14.326Z,7.72
2023-12-11T02:33:42.058Z,7.71
2023-12-11T02:36:09.973Z,7.69
2023-12-11T02:38:37.479Z,7.55
2023-12-11T02:41:05.183Z,7.51
2023-12-11T02:43:32.737Z,7.54
2023-12-11T02:45:59.803Z,7.57
2023-12-11T02:48:27.505Z,7.60
2023-12-11T02:50:55.044Z,7.54
2023-12-11T02:53:22.445Z,7.50
2023-12-11T02:55:49.396Z,7.50
2023-12-11T02:58:16.736Z,7.40
2023-12-11T03:00:43.751Z,7.50
2023-12-11T03:03:11.093Z,7.47
2023-12-11T03:05:38.507Z,7.46
2023-12-11T03:08:06.897Z,7.45
2023-12-11T03:10:34.317Z,7.39
2023-12-11T03:13:01.709Z,7.42
2023-12-11T03:15:28.741Z,7.47
2023-12-11T03:17:56.070Z,7.46
2023-12-11T03:20:23.222Z,7.44
2023-12-11T03:22:50.571Z,7.40
2023-12-11T03:25:17.860Z,7.35
2023-12-11T03:27:45.196Z,7.39
2023-12-11T03:30:12.238Z,7.48
2023-12-11T03:32:40.014Z,7.58
2023-12-11T03:35:07.335Z,7.61
2023-12-11T03:37:34.645Z,7.47
2023-12-11T03:40:01.962Z,7.50
2023-12-11T03:42:29.437Z,7.54
2023-12-11T03:44:56.526Z,7.60
2023-12-11T03:47:24.835Z,7.63
2023-12-11T03:49:52.854Z,7.68
2023-12-11T03:52:20.259Z,7.66
2023-12-11T03:54:47.780Z,7.66
2023-12-11T03:57:15.043Z,7.65
2023-12-11T03:59:42.132Z,7.63
2023-12-11T04:02:09.610Z,7.58
2023-12-11T04:04:36.820Z,7.58
2023-12-11T04:07:04.512Z,7.57
2023-12-11T04:09:31.615Z,7.57
2023-12-11T04:11:58.881Z,7.49
2023-12-11T04:14:25.955Z,7.41
2023-12-11T04:16:53.213Z,7.40
2023-12-11T04:19:20.350Z,7.43
2023-12-11T04:21:47.862Z,7.50
2023-12-11T04:24:15.400Z,7.50
2023-12-11T04:26:42.924Z,7.49
2023-12-11T04:29:09.926Z,7.51
2023-12-11T04:31:37.247Z,7.51
2023-12-11T04:34:04.549Z,7.51
2023-12-11T04:36:31.984Z,7.54
2023-12-11T04:38:59.020Z,7.51
2023-12-11T04:41:26.412Z,7.41
2023-12-11T04:43:53.475Z,7.48
2023-12-11T04:46:20.875Z,7.53
2023-12-11T04:48:48.105Z,7.50
2023-12-11T04:51:15.506Z,7.47
2023-12-11T04:53:42.566Z,7.55
2023-12-11T04:56:10.388Z,7.56
2023-12-11T04:58:37.486Z,7.46
2023-12-11T05:01:05.274Z,7.49
2023-12-11T05:03:32.453Z,7.52
2023-12-11T05:06:00.096Z,7.49
2023-12-11T05:08:30.234Z,7.53
2023-12-11T05:10:58.311Z,7.54
2023-12-11T05:13:25.314Z,7.59
2023-12-11T05:15:56.286Z,7.57
2023-12-11T05:18:23.436Z,7.57
2023-12-11T05:20:50.948Z,7.54
2023-12-11T05:23:18.013Z,7.55
2023-12-11T05:25:45.469Z,7.53
2023-12-11T05:28:12.683Z,7.56
2023-12-11T05:30:40.050Z,7.57
2023-12-11T05:33:07.058Z,7.59
2023-12-11T05:35:34.655Z,7.64
2023-12-11T05:38:01.664Z,7.64
2023-12-11T05:40:28.985Z,7.61
2023-12-11T05:42:56.135Z,7.61
2023-12-11T05:45:23.439Z,7.60
2023-12-11T05:47:50.495Z,7.59
2023-12-11T05:50:17.975Z,7.60
2023-12-11T05:52:45.750Z,7.60
2023-12-11T05:55:13.726Z,7.59
2023-12-11T05:57:40.903Z,7.64
2023-12-11T06:00:09.341Z,7.61
2023-12-11T06:02:36.505Z,7.65
2023-12-11T06:05:04.183Z,7.61
2023-12-11T06:07:31.438Z,7.61
2023-12-11T06:09:58.924Z,7.64
2023-12-11T06:12:25.997Z,7.55
2023-12-11T06:14:53.335Z,7.48
2023-12-11T06:17:20.912Z,7.55
2023-12-11T06:19:49.617Z,7.60
2023-12-11T06:22:16.668Z,7.61
2023-12-11T06:24:45.217Z,7.60
2023-12-11T06:27:12.488Z,7.65
2023-12-11T06:29:40.995Z,7.69
2023-12-11T06:32:09.588Z,7.64
2023-12-11T06:34:37.649Z,7.63
2023-12-11T06:37:05.203Z,7.63
2023-12-11T06:39:32.959Z,7.64
2023-12-11T06:42:00.535Z,7.66
2023-12-11T06:44:28.231Z,7.66
2023-12-11T06:46:55.853Z,7.65
2023-12-11T06:49:23.482Z,7.64
2023-12-11T06:51:51.515Z,7.65
2023-12-11T06:54:19.519Z,7.67
2023-12-11T06:56:46.674Z,7.68
2023-12-11T06:59:13.995Z,7.68
2023-12-11T07:01:41.477Z,7.68
2023-12-11T07:04:09.266Z,7.71
2023-12-11T07:06:36.625Z,7.70
2023-12-11T07:09:04.370Z,7.73
2023-12-11T07:11:31.823Z,7.77
2023-12-11T07:13:59.221Z,7.79
2023-12-11T07:16:26.403Z,7.80
2023-12-11T07:18:54.698Z,7.86
2023-12-11T07:21:22.164Z,7.91
2023-12-11T07:23:50.074Z,7.95
2023-12-11T07:26:17.661Z,7.95
2023-12-11T07:29:03.157Z,7.99
2023-12-11T07:31:30.144Z,7.99
2023-12-11T07:33:57.740Z,8.04
2023-12-11T07:36:25.327Z,8.10
2023-12-11T07:38:52.679Z,8.12
2023-12-11T07:41:21.862Z,8.16
2023-12-11T07:43:49.562Z,8.21
2023-12-11T07:46:21.537Z,8.23
2023-12-11T07:48:49.171Z,8.27
2023-12-11T07:51:19.969Z,8.28
2023-12-11T07:53:48.806Z,8.27
2023-12-11T07:56:24.309Z,8.28
2023-12-11T07:58:53.056Z,8.35
2023-12-11T08:01:21.004Z,8.40
2023-12-11T08:03:48.995Z,8.43
2023-12-11T08:06:17.346Z,8.46
2023-12-11T08:08:45.025Z,8.49
2023-12-11T08:11:23.665Z,8.52
2023-12-11T08:13:51.010Z,8.57
2023-12-11T08:16:18.807Z,8.51
2023-12-11T08:18:46.434Z,8.57
2023-12-11T08:21:14.044Z,8.57
2023-12-11T08:23:45.104Z,8.58
2023-12-11T08:26:16.445Z,8.57
2023-12-11T08:28:43.835Z,8.57
2023-12-11T08:31:11.263Z,8.52
2023-12-11T08:33:38.965Z,8.51
2023-12-11T08:36:07.414Z,8.44
2023-12-11T08:38:34.792Z,8.40
2023-12-11T08:41:01.751Z,8.42
2023-12-11T08:43:29.151Z,8.43
2023-12-11T08:45:57.205Z,8.47
2023-12-11T08:48:28.329Z,8.55
2023-12-11T08:50:55.991Z,8.63
2023-12-11T08:54:04.776Z,8.67
2023-12-11T08:56:31.788Z,8.76
2023-12-11T08:58:59.155Z,8.83
2023-12-11T09:01:26.200Z,8.87
2023-12-11T09:03:53.591Z,8.94
2023-12-11T09:06:20.859Z,8.94
2023-12-11T09:08:48.335Z,9.00
2023-12-11T09:11:15.381Z,9.06
2023-12-11T09:14:00.632Z,9.09
2023-12-11T09:16:38.682Z,9.02
2023-12-11T09:19:20.119Z,9.09
2023-12-11T09:21:48.967Z,9.10
2023-12-11T09:24:16.792Z,9.10
2023-12-11T09:26:43.997Z,9.11
2023-12-11T09:29:11.827Z,9.17
2023-12-11T09:31:39.560Z,9.18
2023-12-11T09:34:07.065Z,9.20
2023-12-11T09:36:34.737Z,9.19
2023-12-11T09:39:01.997Z,9.18
2023-12-11T09:41:41.326Z,9.24
2023-12-11T09:44:10.132Z,9.26
2023-12-11T09:47:40.563Z,9.26
2023-12-11T09:50:09.223Z,9.25
2023-12-11T09:52:43.813Z,9.34
2023-12-11T09:55:12.009Z,9.40
2023-12-11T09:57:42.289Z,9.43
2023-12-11T10:00:13.065Z,9.47
2023-12-11T10:02:42.363Z,9.54
2023-12-11T10:05:12.165Z,9.60
2023-12-11T10:07:42.293Z,9.68
2023-12-11T10:10:31.378Z,9.70
2023-12-11T10:12:59.582Z,9.78
2023-12-11T10:15:33.378Z,9.87
2023-12-11T10:18:16.418Z,9.95
2023-12-11T10:20:44.154Z,10.00
2023-12-11T10:23:20.067Z,9.99
2023-12-11T10:25:54.366Z,10.05
2023-12-11T10:28:25.296Z,10.11
2023-12-11T10:31:00.757Z,10.08
2023-12-11T10:33:32.486Z,10.14
2023-12-11T10:36:20.431Z,10.14
2023-12-11T10:38:47.770Z,10.19
2023-12-11T10:41:27.734Z,10.24
2023-12-11T10:44:13.132Z,10.26
2023-12-11T10:46:53.130Z,10.29
2023-12-11T10:49:21.102Z,10.32
2023-12-11T10:51:50.085Z,10.32
2023-12-11T10:54:18.053Z,10.30
2023-12-11T10:56:49.041Z,10.31
2023-12-11T10:59:17.544Z,10.28
2023-12-11T11:01:49.088Z,10.23
2023-12-11T11:04:20.105Z,10.25
2023-12-11T11:06:54.308Z,10.18
2023-12-11T11:09:40.231Z,10.19
2023-12-11T11:12:29.327Z,10.08
2023-12-11T11:14:56.607Z,10.14
2023-12-11T11:17:23.949Z,10.18
2023-12-11T11:20:13.711Z,10.26
2023-12-11T11:22:41.692Z,10.25
2023-12-11T11:25:33.587Z,10.32
2023-12-11T11:28:02.275Z,10.33
2023-12-11T11:30:47.669Z,10.45
2023-12-11T11:33:15.153Z,10.50
2023-12-11T11:35:48.119Z,10.48
2023-12-11T11:38:19.385Z,10.53
2023-12-11T11:40:49.580Z,10.56
2023-12-11T11:43:19.308Z,10.55
2023-12-11T11:45:46.593Z,10.46
2023-12-11T11:48:14.122Z,10.49
2023-12-11T11:50:53.669Z,10.48
2023-12-11T11:53:22.471Z,10.46
2023-12-11T11:55:49.730Z,10.46
2023-12-11T11:58:17.233Z,10.49
2023-12-11T12:00:46.498Z,10.51
2023-12-11T12:03:14.202Z,10.49
2023-12-11T12:05:58.816Z,10.46
2023-12-11T12:08:26.284Z,10.51
2023-12-11T12:10:58.393Z,10.48
2023-12-11T12:13:26.103Z,10.39
2023-12-11T12:15:54.299Z,10.41
2023-12-11T12:18:21.911Z,10.38
2023-12-11T12:21:03.317Z,10.38
2023-12-11T12:23:31.139Z,10.39
2023-12-11T12:26:02.405Z,10.43
2023-12-11T12:28:30.170Z,10.47
2023-12-11T12:30:57.885Z,10.53
2023-12-11T12:33:26.526Z,10.51
2023-12-11T12:35:54.297Z,10.52
2023-12-11T12:38:22.713Z,10.54
2023-12-11T12:40:50.224Z,10.58
2023-12-11T12:43:18.089Z,10.64
2023-12-11T12:45:46.056Z,10.68
2023-12-11T12:48:14.726Z,10.61
2023-12-11T12:50:41.970Z,10.59
2023-12-11T12:53:14.796Z,10.65
2023-12-11T12:55:42.240Z,10.69
2023-12-11T12:58:10.357Z,10.71
2023-12-11T13:00:38.541Z,10.73
2023-12-11T13:03:09.304Z,10.78
2023-12-11T13:05:47.566Z,10.87
2023-12-11T13:08:16.137Z,10.94
2023-12-11T13:10:58.555Z,10.84
2023-12-11T13:13:28.281Z,10.75
2023-12-11T13:15:57.816Z,10.84
2023-12-11T13:18:26.451Z,10.86
2023-12-11T13:20:53.662Z,10.82
2023-12-11T13:23:21.111Z,10.84
2023-12-11T13:25:48.401Z,10.84
2023-12-11T13:28:15.802Z,10.82
2023-12-11T13:30:45.564Z,10.78
2023-12-11T13:33:12.800Z,10.69
2023-12-11T13:35:39.782Z,10.70
2023-12-11T13:38:07.093Z,10.67
2023-12-11T13:40:34.414Z,10.66
2023-12-11T13:43:02.662Z,10.62
2023-12-11T13:45:29.645Z,10.66
2023-12-11T13:47:57.113Z,10.67
2023-12-11T13:50:24.261Z,10.68
2023-12-11T13:52:51.503Z,10.69
2023-12-11T13:55:18.856Z,10.69
2023-12-11T13:57:46.934Z,10.74
2023-12-11T14:00:23.023Z,10.74
2023-12-11T14:03:00.915Z,10.77
2023-12-11T14:05:34.333Z,10.78
2023-12-11T14:08:04.439Z,10.79
2023-12-11T14:10:32.541Z,10.79
2023-12-11T14:13:00.011Z,10.81
2023-12-11T14:15:28.853Z,10.80
2023-12-11T14:17:56.214Z,10.76
2023-12-11T14:20:23.543Z,10.74
2023-12-11T14:22:50.977Z,10.73
2023-12-11T14:25:18.208Z,10.67
2023-12-11T14:27:45.743Z,10.59
2023-12-11T14:30:13.294Z,10.63
2023-12-11T14:32:40.785Z,10.62
2023-12-11T14:35:08.563Z,10.61
2023-12-11T14:37:36.256Z,10.54
2023-12-11T14:40:03.774Z,10.56
2023-12-11T14:42:32.409Z,10.56
2023-12-11T14:45:02.067Z,10.54
2023-12-11T14:47:30.113Z,10.57
2023-12-11T14:49:58.571Z,10.54
2023-12-11T14:52:38.156Z,10.58
2023-12-11T14:55:07.930Z,10.58
2023-12-11T14:57:54.901Z,10.58
2023-12-11T15:00:22.518Z,10.60
2023-12-11T15:02:49.946Z,10.60
2023-12-11T15:05:36.616Z,10.59
2023-12-11T15:08:27.217Z,10.59
2023-12-11T15:10:55.310Z,10.54
2023-12-11T15:13:22.709Z,10.48
2023-12-11T15:15:50.187Z,10.51
2023-12-11T15:18:17.656Z,10.50
2023-12-11T15:20:44.749Z,10.48
2023-12-11T15:23:13.081Z,10.46
2023-12-11T15:25:42.050Z,10.44
2023-12-11T15:28:36.591Z,10.48
2023-12-11T15:31:13.643Z,10.50
2023-12-11T15:33:42.245Z,10.52
2023-12-11T15:36:16.545Z,10.54
2023-12-11T15:38:44.096Z,10.58
2023-12-11T15:41:12.669Z,10.59
2023-12-11T15:44:15.686Z,10.62
2023-12-11T15:46:45.749Z,10.63
2023-12-11T15:49:13.213Z,10.65
2023-12-11T15:51:40.386Z,10.59
2023-12-11T15:54:35.565Z,10.61
2023-12-11T15:57:02.877Z,10.64
2023-12-11T15:59:32.025Z,10.62
2023-12-11T16:01:59.695Z,10.62
2023-12-11T16:04:27.493Z,10.63
2023-12-11T16:06:55.175Z,10.63
2023-12-11T16:09:22.495Z,10.64
2023-12-11T16:11:49.816Z,10.63
2023-12-11T16:14:17.217Z,10.62
2023-12-11T16:16:44.338Z,10.64
2023-12-11T16:19:15.493Z,10.65
2023-12-11T16:21:42.643Z,10.67
2023-12-11T16:24:10.252Z,10.60
2023-12-11T16:26:37.389Z,10.60
2023-12-11T16:29:04.945Z,10.59
2023-12-11T16:31:32.419Z,10.60
2023-12-11T16:34:02.610Z,10.63
2023-12-11T16:36:30.095Z,10.59
2023-12-11T16:38:57.604Z,10.67
2023-12-11T16:41:29.056Z,10.62
2023-12-11T16:43:57.352Z,10.65
2023-12-11T16:46:25.772Z,10.68
2023-12-11T16:48:53.223Z,10.69
2023-12-11T16:51:20.431Z,10.72
2023-12-11T16:53:47.886Z,10.67
2023-12-11T16:56:16.306Z,10.71
2023-12-11T16:58:43.825Z,10.78
2023-12-11T17:01:14.389Z,10.81
2023-12-11T17:03:42.301Z,10.86
2023-12-11T17:06:16.549Z,10.79
2023-12-11T17:08:44.805Z,10.86
2023-12-11T17:11:13.034Z,10.78
2023-12-11T17:14:06.883Z,10.85
2023-12-11T17:16:33.868Z,10.80
2023-12-11T17:19:01.326Z,10.77
2023-12-11T17:21:33.905Z,10.82
2023-12-11T17:24:04.025Z,10.78
2023-12-11T17:26:31.099Z,10.78
2023-12-11T17:28:59.493Z,10.77
2023-12-11T17:31:26.519Z,10.85
2023-12-11T17:33:53.913Z,10.89
2023-12-11T17:36:22.764Z,10.88
2023-12-11T17:38:50.858Z,10.82
2023-12-11T17:41:18.820Z,10.82
2023-12-11T17:43:46.176Z,10.78
2023-12-11T17:46:13.991Z,10.67
2023-12-11T17:48:41.340Z,10.68
2023-12-11T17:51:10.150Z,10.61
2023-12-11T17:53:38.679Z,10.56
2023-12-11T17:56:09.570Z,10.51
2023-12-11T17:58:39.233Z,10.39
2023-12-11T18:01:29.437Z,10.36
2023-12-11T18:03:56.996Z,10.42
2023-12-11T18:06:24.251Z,10.45
2023-12-11T18:08:51.670Z,10.47
2023-12-11T18:11:18.823Z,10.42
2023-12-11T18:13:47.215Z,10.43
2023-12-11T18:16:15.020Z,10.25
2023-12-11T18:18:42.470Z,10.34
2023-12-11T18:21:09.661Z,10.34
2023-12-11T18:23:37.106Z,10.35
2023-12-11T18:26:04.361Z,10.33
2023-12-11T18:28:31.675Z,10.35
2023-12-11T18:30:58.657Z,10.15
2023-12-11T18:33:26.074Z,10.14
2023-12-11T18:35:53.685Z,10.16
2023-12-11T18:38:31.250Z,10.21
2023-12-11T18:44:05.287Z,10.26
2023-12-11T18:46:32.810Z,10.25
2023-12-11T18:49:01.267Z,10.19
2023-12-11T18:51:31.880Z,10.21
2023-12-11T18:53:59.576Z,10.19
2023-12-11T18:56:26.755Z,10.20
2023-12-11T18:58:54.418Z,10.10
2023-12-11T19:01:22.457Z,10.12
2023-12-11T19:03:50.414Z,10.13
2023-12-11T19:06:22.900Z,10.13
2023-12-11T19:08:50.256Z,10.10
2023-12-11T19:11:17.553Z,10.08
2023-12-11T19:13:45.164Z,10.08
2023-12-11T19:16:12.205Z,10.07
2023-12-11T19:18:39.649Z,9.99
2023-12-11T19:21:06.957Z,9.99
2023-12-11T19:23:37.022Z,9.95
2023-12-11T19:26:07.062Z,9.99
2023-12-11T19:28:34.659Z,9.96
2023-12-11T19:31:01.995Z,9.99
2023-12-11T19:33:30.307Z,9.94
2023-12-11T19:35:57.408Z,9.97
2023-12-11T19:39:22.500Z,9.97
2023-12-11T19:41:49.545Z,9.88
2023-12-11T19:44:16.864Z,9.95
2023-12-11T19:46:45.207Z,9.82
2023-12-11T19:49:12.778Z,9.86
2023-12-11T19:51:43.046Z,9.86
2023-12-11T19:54:10.402Z,9.84
2023-12-11T19:56:37.438Z,9.81
2023-12-11T19:59:05.014Z,9.81
2023-12-11T20:01:32.296Z,9.73
2023-12-11T20:03:59.804Z,9.77
2023-12-11T20:06:28.783Z,9.79
2023-12-11T20:08:56.236Z,9.78
2023-12-11T20:11:23.403Z,9.70
2023-12-11T20:13:51.927Z,9.71
2023-12-11T20:16:19.114Z,9.74
2023-12-11T20:18:46.765Z,9.76
2023-12-11T20:21:14.140Z,9.66
2023-12-11T20:23:41.658Z,9.56
2023-12-11T20:26:12.832Z,9.62
2023-12-11T20:28:40.295Z,9.64
2023-12-11T20:31:17.741Z,9.60
2023-12-11T20:33:46.209Z,9.56
2023-12-11T20:36:22.209Z,9.60
2023-12-11T20:38:49.655Z,9.61
2023-12-11T20:41:25.970Z,9.57
2023-12-11T20:43:59.133Z,9.55
2023-12-11T20:46:27.620Z,9.58
2023-12-11T20:48:55.471Z,9.60
2023-12-11T20:51:24.192Z,9.53
2023-12-11T20:53:52.582Z,9.61
2023-12-11T20:56:30.030Z,9.63
2023-12-11T20:59:00.098Z,9.65
2023-12-11T21:01:32.887Z,9.66
2023-12-11T21:04:02.671Z,9.68
2023-12-11T21:06:31.049Z,9.69
2023-12-11T21:09:00.488Z,9.68
2023-12-11T21:11:28.258Z,9.68
2023-12-11T21:13:56.014Z,9.72
2023-12-11T21:16:23.301Z,9.70
2023-12-11T21:18:51.494Z,9.72
2023-12-11T21:21:23.629Z,9.74
2023-12-11T21:23:51.469Z,9.68
2023-12-11T21:26:21.127Z,9.67
2023-12-11T21:28:50.043Z,9.66
2023-12-11T21:31:30.582Z,9.69
2023-12-11T21:33:59.270Z,9.65
2023-12-11T21:36:30.860Z,9.69
2023-12-11T21:39:00.589Z,9.70
2023-12-11T21:41:28.340Z,9.69
2023-12-11T21:43:57.695Z,9.66
2023-12-11T21:46:27.248Z,9.65
2023-12-11T21:49:02.914Z,9.65
2023-12-11T21:51:30.505Z,9.55
2023-12-11T21:53:57.838Z,9.56
2023-12-11T21:56:26.667Z,9.59
2023-12-11T21:58:54.558Z,9.58
2023-12-11T22:01:21.804Z,9.56
2023-12-11T22:03:49.421Z,9.44
2023-12-11T22:06:16.564Z,9.49
2023-12-11T22:08:43.880Z,9.51
2023-12-11T22:11:15.308Z,9.48
2023-12-11T22:13:46.282Z,9.47
2023-12-11T22:16:15.773Z,9.46
2023-12-11T22:18:43.328Z,9.44
2023-12-11T22:21:10.368Z,9.48
2023-12-11T22:23:37.613Z,9.42
2023-12-11T22:26:04.834Z,9.44
2023-12-11T22:28:33.065Z,9.35
2023-12-11T22:31:00.723Z,9.42
2023-12-11T22:33:28.015Z,9.43
2023-12-11T22:35:55.153Z,9.45
2023-12-11T22:38:22.379Z,9.42
2023-12-11T22:40:49.362Z,9.44
2023-12-11T22:43:16.718Z,9.43
2023-12-11T22:45:43.843Z,9.36
2023-12-11T22:48:11.759Z,9.36
2023-12-11T22:50:38.745Z,9.41
2023-12-11T22:53:05.917Z,9.43
2023-12-11T22:55:32.946Z,9.35
2023-12-11T22:58:09.785Z,9.39
2023-12-11T23:00:43.700Z,9.39
2023-12-11T23:03:11.061Z,9.36
2023-12-11T23:05:38.157Z,9.32
2023-12-11T23:08:05.516Z,9.35
2023-12-11T23:10:32.500Z,9.37
2023-12-11T23:12:59.738Z,9.33
2023-12-11T23:15:26.647Z,9.32
2023-12-11T23:17:53.988Z,9.36
2023-12-11T23:20:21.017Z,9.34
2023-12-11T23:22:48.330Z,9.34
2023-12-11T23:25:17.193Z,9.35
2023-12-11T23:27:45.691Z,9.33
2023-12-11T23:30:12.772Z,9.31
2023-12-11T23:32:40.065Z,9.38
2023-12-11T23:35:08.024Z,9.37
2023-12-11T23:37:35.568Z,9.38
2023-12-11T23:40:03.005Z,9.45
2023-12-11T23:42:32.243Z,9.49
2023-12-11T23:44:59.941Z,9.50
2023-12-11T23:47:27.245Z,9.50
2023-12-11T23:49:54.473Z,9.49
2023-12-11T23:52:21.841Z,9.54
2023-12-11T23:54:48.918Z,9.56
2023-12-11T23:57:16.194Z,9.57
2023-12-11T23:59:43.255Z,9.55
